KGWO/GWO METAR and TAF weather

Enter ICAO airport designator
Station Type Date Time Source
KGWO METAR 2019/05/26 00:53 UTC NOAA

KGWO 260053Z AUTO 16006KT 10SM CLR 28/20 A3006 RMK AO2 SLP177 T02830200


Station Type Date Time Source
KGWO Decoded METAR 2019/05/26 00:53 UTC NOAA

GREENWOOD-LEFLORE AIRPORT, MS, United States (KGWO) 33-30N 090-05W 44M
May 25, 2019 - 08:53 PM EDT / 2019.05.26 0053 UTC
Wind: from the SSE (160 degrees) at 7 MPH (6 KT):0
Visibility: 10 mile(s):0
Sky conditions: clear
Temperature: 82.9 F (28.3 C)
Dew Point: 68.0 F (20.0 C)
Relative Humidity: 60%
Pressure (altimeter): 30.06 in. Hg (1017 hPa)
ob: KGWO 260053Z AUTO 16006KT 10SM CLR 28/20 A3006 RMK AO2 SLP177 T02830200
cycle: 1

Station Type Date Time Source
KGWO TAF 2019/05/25 18:33 UTC NOAA

TAF KGWO 251729Z 2518/2618 19006KT P6SM SKC

Example: see airport list